Time;durP1;ratioP1;P1;durP2;ratioP2;P2;SDS_P1;SDS_P2;PMS_P1;PMS_P2;Temp;Humidity;BMP_temperature;BMP_pressure;BME280_temperature;BME280_humidity;BME280_pressure;Samples;Min_cycle;Max_cycle;Signal;HPM_P1;HPM_P2
2021/08/05 00:01:37;;;;;;;;;4.50;4.00;;;;;-143.39;100.00;63593.47;4848301;29;48305;-82
2021/08/05 00:04:03;;;;;;;;;5.50;4.00;;;;;-143.39;100.00;63593.47;4848435;29;45376;-82
2021/08/05 00:06:28;;;;;;;;;3.00;3.00;;;;;-143.39;100.00;63593.47;4864946;29;45298;-82
2021/08/05 00:08:53;;;;;;;;;3.25;3.00;;;;;-143.39;100.00;63593.47;4848525;29;45599;-82
2021/08/05 00:11:20;;;;;;;;;4.00;4.00;;;;;-143.39;100.00;63593.47;4867306;29;46113;-82
2021/08/05 00:13:45;;;;;;;;;5.50;4.50;;;;;-143.39;100.00;63593.47;4867911;29;45408;-82
2021/08/05 00:16:11;;;;;;;;;7.50;6.00;;;;;-143.39;100.00;63593.47;4865060;29;45397;-82
2021/08/05 00:18:36;;;;;;;;;7.75;6.00;;;;;-143.39;100.00;63593.47;4848120;29;45572;-82
2021/08/05 00:21:02;;;;;;;;;5.25;4.75;;;;;-143.39;100.00;63593.47;4865561;29;45441;-82
2021/08/05 00:23:27;;;;;;;;;6.75;5.25;;;;;-143.39;100.00;63593.47;4865427;29;45300;-82
2021/08/05 00:25:53;;;;;;;;;6.25;4.00;;;;;-143.39;100.00;63593.47;4868306;29;45320;-82
2021/08/05 00:28:18;;;;;;;;;9.75;6.50;;;;;-143.39;100.00;63593.47;4868236;29;45344;-82
2021/08/05 00:30:43;;;;;;;;;7.00;7.00;;;;;-143.39;100.00;63593.47;4868083;29;45430;-81
2021/08/05 00:33:08;;;;;;;;;7.00;5.00;;;;;-143.39;100.00;63593.47;4868934;29;45435;-83
2021/08/05 00:35:34;;;;;;;;;5.00;5.00;;;;;-143.39;100.00;63593.47;4851239;29;45442;-82
2021/08/05 00:37:59;;;;;;;;;6.25;6.00;;;;;-143.39;100.00;63593.47;4847911;29;46071;-82
2021/08/05 00:40:24;;;;;;;;;6.00;5.00;;;;;-143.39;100.00;63593.47;4861231;29;45464;-82
2021/08/05 00:42:50;;;;;;;;;6.50;5.00;;;;;-143.39;100.00;63593.47;4867881;29;45182;-82
2021/08/05 00:45:16;;;;;;;;;6.00;5.25;;;;;-143.39;100.00;63593.47;4867709;29;45242;-82
2021/08/05 00:47:42;;;;;;;;;9.00;6.00;;;;;-143.39;100.00;63593.47;4850945;29;45423;-82
2021/08/05 00:50:08;;;;;;;;;7.50;6.00;;;;;-143.39;100.00;63593.47;4867347;29;45311;-82
2021/08/05 00:52:33;;;;;;;;;7.00;6.00;;;;;-143.39;100.00;63593.47;4867663;29;45240;-82
2021/08/05 00:54:59;;;;;;;;;8.00;5.00;;;;;-143.39;100.00;63593.47;4852096;29;45429;-82
2021/08/05 00:57:24;;;;;;;;;7.50;6.25;;;;;-143.39;100.00;63593.47;4876756;29;45246;-82
2021/08/05 00:59:49;;;;;;;;;4.75;4.75;;;;;-143.39;100.00;63593.47;4867436;29;46319;-82
2021/08/05 01:02:19;;;;;;;;;4.50;4.00;;;;;-143.39;100.00;63593.47;4850870;29;45523;-82
2021/08/05 01:04:48;;;;;;;;;5.50;5.00;;;;;-143.39;100.00;63593.47;4867729;29;45433;-82
2021/08/05 01:07:21;;;;;;;;;6.50;5.75;;;;;-143.39;100.00;63593.47;4867277;29;45489;-82
2021/08/05 01:10:00;;;;;;;;;6.00;6.00;;;;;-143.39;100.00;63593.47;4868691;29;45409;-82
2021/08/05 01:12:32;;;;;;;;;8.75;5.00;;;;;-143.39;100.00;63593.47;4868017;29;45807;-81
2021/08/05 01:15:17;;;;;;;;;8.25;7.00;;;;;-143.39;100.00;63593.47;4855449;29;45307;-82
2021/08/05 01:17:56;;;;;;;;;6.00;5.00;;;;;-143.39;100.00;63593.47;4852433;29;45942;-82
2021/08/05 01:20:23;;;;;;;;;7.75;6.50;;;;;-143.39;100.00;63593.47;4850854;29;47522;-82
2021/08/05 01:22:59;;;;;;;;;8.00;6.00;;;;;-143.39;100.00;63593.47;4850377;29;46063;-82
2021/08/05 01:25:37;;;;;;;;;6.50;5.00;;;;;-143.39;100.00;63593.47;4867442;29;45319;-82
2021/08/05 01:28:03;;;;;;;;;6.25;5.00;;;;;-143.39;100.00;63593.47;4867483;29;45219;-82
2021/08/05 01:30:31;;;;;;;;;5.75;4.25;;;;;-143.39;100.00;63593.47;4867061;29;45487;-82
2021/08/05 01:32:58;;;;;;;;;6.00;5.50;;;;;-143.39;100.00;63593.47;4867210;29;45489;-82
2021/08/05 01:35:25;;;;;;;;;4.25;4.25;;;;;-143.39;100.00;63593.47;4867165;29;45400;-82
2021/08/05 01:37:51;;;;;;;;;8.25;5.25;;;;;-143.39;100.00;63593.47;4866914;29;45231;-82
2021/08/05 01:40:18;;;;;;;;;6.25;5.50;;;;;-143.39;100.00;63593.47;4868323;29;45508;-82
2021/08/05 01:42:44;;;;;;;;;7.25;7.00;;;;;-143.39;100.00;63593.47;4850448;29;45471;-82
2021/08/05 01:45:10;;;;;;;;;11.25;8.25;;;;;-143.39;100.00;63593.47;4867121;29;45342;-82
2021/08/05 01:47:39;;;;;;;;;7.00;5.00;;;;;-143.39;100.00;63593.47;4866789;29;45346;-82
2021/08/05 01:50:07;;;;;;;;;6.00;5.00;;;;;-143.39;100.00;63593.47;4866738;29;46382;-82
2021/08/05 01:52:35;;;;;;;;;6.00;6.00;;;;;-143.39;100.00;63593.47;4866879;29;45382;-82
2021/08/05 01:55:00;;;;;;;;;10.00;7.00;;;;;-143.39;100.00;63593.47;4867331;29;45525;-82
2021/08/05 01:57:26;;;;;;;;;9.00;8.25;;;;;-143.39;100.00;63593.47;4859563;29;45562;-82
2021/08/05 01:59:51;;;;;;;;;9.75;7.25;;;;;-143.39;100.00;63593.47;4867916;29;46240;-82
2021/08/05 02:02:16;;;;;;;;;11.25;9.00;;;;;-143.39;100.00;63593.47;4867186;29;45511;-82
2021/08/05 02:05:01;;;;;;;;;9.75;8.00;;;;;-143.39;100.00;63593.47;4866671;29;45374;-82
2021/08/05 02:07:30;;;;;;;;;12.00;9.00;;;;;-143.39;100.00;63593.47;4866532;29;46467;-82
2021/08/05 02:10:14;;;;;;;;;10.75;8.00;;;;;-143.39;100.00;63593.47;4867542;29;46399;-82
2021/08/05 02:12:43;;;;;;;;;10.50;8.50;;;;;-143.39;100.00;63593.47;4869226;29;45397;-82
2021/08/05 02:15:09;;;;;;;;;9.50;7.00;;;;;-143.39;100.00;63593.47;4866806;29;45497;-82
2021/08/05 02:17:41;;;;;;;;;9.00;8.00;;;;;-143.39;100.00;63593.47;4849614;29;46062;-82
2021/08/05 02:20:08;;;;;;;;;9.50;8.50;;;;;-143.39;100.00;63593.47;4866699;29;45395;-82
2021/08/05 02:22:37;;;;;;;;;9.50;9.25;;;;;-143.39;100.00;63593.47;4866168;29;45247;-81
2021/08/05 02:25:03;;;;;;;;;10.25;8.00;;;;;-143.39;100.00;63593.47;4867538;29;45310;-81
2021/08/05 02:27:29;;;;;;;;;10.50;8.75;;;;;-143.39;100.00;63593.47;4849704;29;45846;-82
2021/08/05 02:29:56;;;;;;;;;9.75;9.00;;;;;-143.39;100.00;63593.47;4849832;29;47148;-82
2021/08/05 02:32:22;;;;;;;;;10.75;8.00;;;;;-143.39;100.00;63593.47;4866300;29;45624;-82
2021/08/05 02:34:48;;;;;;;;;11.00;8.75;;;;;-143.39;100.00;63593.47;4867181;29;45240;-81
2021/08/05 02:37:14;;;;;;;;;8.00;6.00;;;;;-143.39;100.00;63593.47;4865993;29;45632;-81
2021/08/05 02:39:40;;;;;;;;;8.50;6.50;;;;;-143.39;100.00;63593.47;4866646;29;45319;-81
2021/08/05 02:42:05;;;;;;;;;8.00;7.00;;;;;-143.39;100.00;63593.47;4849776;29;45431;-81
2021/08/05 02:44:32;;;;;;;;;7.00;7.00;;;;;-143.39;100.00;63593.47;4850817;29;45579;-81
2021/08/05 02:46:59;;;;;;;;;9.00;7.25;;;;;-143.39;100.00;63593.47;4850354;29;45499;-82
2021/08/05 02:49:25;;;;;;;;;9.75;8.25;;;;;-143.39;100.00;63593.47;4866458;29;45487;-81
2021/08/05 02:51:51;;;;;;;;;9.00;7.25;;;;;-143.39;100.00;63593.47;4865702;29;45234;-82
2021/08/05 02:54:18;;;;;;;;;7.00;7.00;;;;;-143.39;100.00;63593.47;4866489;29;45170;-82
2021/08/05 02:56:44;;;;;;;;;7.75;7.50;;;;;-143.39;100.00;63593.47;4878693;29;45497;-81
2021/08/05 02:59:10;;;;;;;;;9.00;7.75;;;;;-143.39;100.00;63593.47;4865967;29;45251;-82
2021/08/05 03:01:35;;;;;;;;;7.75;7.00;;;;;-143.39;100.00;63593.47;4865646;29;45385;-82
2021/08/05 03:04:01;;;;;;;;;5.75;5.00;;;;;-143.39;100.00;63593.47;4849413;29;45297;-81
2021/08/05 03:06:27;;;;;;;;;8.75;7.00;;;;;-143.39;100.00;63593.47;4866485;29;45331;-82
2021/08/05 03:08:54;;;;;;;;;5.50;5.50;;;;;-143.39;100.00;63593.47;4867714;29;45475;-81
2021/08/05 03:11:20;;;;;;;;;11.25;8.00;;;;;-143.39;100.00;63593.47;4852088;29;46114;-81
2021/08/05 03:13:46;;;;;;;;;9.00;7.00;;;;;-143.39;100.00;63593.47;4856020;29;45267;-82
2021/08/05 03:16:11;;;;;;;;;7.75;6.25;;;;;-143.39;100.00;63593.47;4870253;29;45233;-81
2021/08/05 03:18:37;;;;;;;;;8.75;7.25;;;;;-143.39;100.00;63593.47;4853276;29;46357;-81
2021/08/05 03:21:03;;;;;;;;;6.00;5.00;;;;;-143.39;100.00;63593.47;4868140;29;45179;-82
2021/08/05 03:23:28;;;;;;;;;7.75;7.75;;;;;-143.39;100.00;63593.47;4865748;29;45280;-82
2021/08/05 03:25:53;;;;;;;;;11.25;7.50;;;;;-143.39;100.00;63593.47;4848648;29;47241;-82
2021/08/05 03:28:19;;;;;;;;;11.50;8.25;;;;;-143.39;100.00;63593.47;4865370;29;45344;-82
2021/08/05 03:30:44;;;;;;;;;7.75;7.25;;;;;-143.39;100.00;63593.47;4850031;29;45834;-82
2021/08/05 03:33:09;;;;;;;;;9.50;9.25;;;;;-143.39;100.00;63593.47;4866586;29;45225;-82
2021/08/05 03:35:35;;;;;;;;;11.25;8.25;;;;;-143.39;100.00;63593.47;4865217;29;45219;-82
2021/08/05 03:38:00;;;;;;;;;10.00;7.25;;;;;-143.39;100.00;63593.47;4865249;29;46184;-82
2021/08/05 03:40:26;;;;;;;;;10.25;8.25;;;;;-143.39;100.00;63593.47;4848541;29;45317;-82
2021/08/05 03:42:51;;;;;;;;;8.25;8.25;;;;;-143.39;100.00;63593.47;4865567;29;45294;-81
2021/08/05 03:45:17;;;;;;;;;7.50;7.50;;;;;-143.39;100.00;63593.47;4865364;29;45428;-82
2021/08/05 03:47:42;;;;;;;;;13.00;8.00;;;;;-143.39;100.00;63593.47;4848518;29;47091;-82
2021/08/05 03:50:08;;;;;;;;;16.25;10.00;;;;;-143.39;100.00;63593.47;4848356;29;45387;-82
2021/08/05 03:52:33;;;;;;;;;12.00;10.00;;;;;-143.39;100.00;63593.47;4865841;29;45378;-82
2021/08/05 03:54:58;;;;;;;;;13.75;10.75;;;;;-143.39;100.00;63593.47;4849767;29;45678;-81
2021/08/05 03:57:24;;;;;;;;;11.00;10.00;;;;;-143.39;100.00;63593.47;4873062;29;46368;-82
2021/08/05 03:59:49;;;;;;;;;8.25;8.25;;;;;-143.39;100.00;63593.47;4850513;29;45839;-82
2021/08/05 04:02:14;;;;;;;;;12.00;9.75;;;;;-143.39;100.00;63593.47;4868614;29;45465;-82
2021/08/05 04:04:41;;;;;;;;;12.00;10.50;;;;;-143.39;100.00;63593.47;4868243;29;45515;-82
2021/08/05 04:07:07;;;;;;;;;14.00;9.50;;;;;-143.39;100.00;63593.47;4868166;29;45929;-81
2021/08/05 04:09:32;;;;;;;;;10.75;10.25;;;;;-143.39;100.00;63593.47;4868837;29;45322;-82
2021/08/05 04:11:57;;;;;;;;;13.25;10.50;;;;;-143.39;100.00;63593.47;4868663;29;45271;-82
2021/08/05 04:14:23;;;;;;;;;15.25;10.25;;;;;-143.39;100.00;63593.47;4855082;29;46041;-82
2021/08/05 04:16:48;;;;;;;;;11.75;8.25;;;;;-143.39;100.00;63593.47;4853164;29;47207;-82
2021/08/05 04:19:13;;;;;;;;;14.00;11.00;;;;;-143.39;100.00;63593.47;4851377;29;45828;-82
2021/08/05 04:21:39;;;;;;;;;8.50;8.50;;;;;-143.39;100.00;63593.47;4868069;29;45439;-81
2021/08/05 04:24:04;;;;;;;;;16.50;9.00;;;;;-143.39;100.00;63593.47;4868161;29;45216;-82
2021/08/05 04:26:30;;;;;;;;;9.25;9.25;;;;;-143.39;100.00;63593.47;4851053;29;48547;-81
2021/08/05 04:28:55;;;;;;;;;10.00;9.25;;;;;-143.39;100.00;63593.47;4867789;29;46652;-81
2021/08/05 04:31:20;;;;;;;;;11.25;10.75;;;;;-143.39;100.00;63593.47;4868063;29;45431;-82
2021/08/05 04:33:46;;;;;;;;;12.25;9.00;;;;;-143.39;100.00;63593.47;4851018;29;45343;-82
2021/08/05 04:36:11;;;;;;;;;9.25;9.25;;;;;-143.39;100.00;63593.47;4867761;29;45464;-81
2021/08/05 04:38:36;;;;;;;;;12.75;8.50;;;;;-143.39;100.00;63593.47;4868868;29;45439;-82
2021/08/05 04:41:02;;;;;;;;;18.75;12.00;;;;;-143.39;100.00;63593.47;4868486;29;45348;-82
2021/08/05 04:43:27;;;;;;;;;12.75;11.50;;;;;-143.39;100.00;63593.47;4850937;29;45696;-82
2021/08/05 04:45:52;;;;;;;;;14.25;10.00;;;;;-143.39;100.00;63593.47;4850951;29;47217;-82
2021/08/05 04:48:18;;;;;;;;;13.25;11.25;;;;;-143.39;100.00;63593.47;4850675;29;45891;-82
2021/08/05 04:50:43;;;;;;;;;14.50;12.00;;;;;-143.39;100.00;63593.47;4850760;29;45411;-82
2021/08/05 04:53:10;;;;;;;;;7.50;6.00;;;;;-143.39;100.00;63593.47;4867555;29;45560;-82
2021/08/05 04:55:35;;;;;;;;;15.00;12.00;;;;;-143.39;100.00;63593.47;4870451;29;46341;-82
2021/08/05 04:58:06;;;;;;;;;11.50;10.00;;;;;-143.39;100.00;63593.47;4857455;29;45272;-81
2021/08/05 05:00:37;;;;;;;;;9.75;8.50;;;;;-143.39;100.00;63593.47;4869692;29;45415;-81
2021/08/05 05:03:03;;;;;;;;;13.25;10.50;;;;;-143.39;100.00;63593.47;4868524;29;45268;-80
2021/08/05 05:05:29;;;;;;;;;11.00;10.50;;;;;-143.39;100.00;63593.47;4861933;29;47449;-82
2021/08/05 05:07:55;;;;;;;;;12.25;12.25;;;;;-143.39;100.00;63593.47;4855515;29;45588;-81
2021/08/05 05:10:22;;;;;;;;;13.50;10.25;;;;;-143.39;100.00;63593.47;4856302;29;45387;-82
2021/08/05 05:12:48;;;;;;;;;14.75;14.00;;;;;-143.39;100.00;63593.47;4874848;29;45374;-82
2021/08/05 05:15:15;;;;;;;;;12.50;9.00;;;;;-143.39;100.00;63593.47;4872450;29;45174;-82
2021/08/05 05:17:43;;;;;;;;;10.50;10.50;;;;;-143.39;100.00;63593.47;4854928;29;46494;-82
2021/08/05 05:20:10;;;;;;;;;12.00;9.50;;;;;-143.39;100.00;63593.47;4869059;29;45290;-82
2021/08/05 05:22:36;;;;;;;;;10.25;9.50;;;;;-143.39;100.00;63593.47;4877381;29;45249;-81
2021/08/05 05:25:03;;;;;;;;;15.00;10.00;;;;;-143.39;100.00;63593.47;4865277;29;47466;-82
2021/08/05 05:27:28;;;;;;;;;18.50;12.50;;;;;-143.39;100.00;63593.47;4867977;29;45615;-82
2021/08/05 05:29:56;;;;;;;;;17.00;12.25;;;;;-143.39;100.00;63593.47;4868057;29;45516;-82
2021/08/05 05:32:23;;;;;;;;;12.50;12.00;;;;;-143.39;100.00;63593.47;4851518;29;45229;-82
2021/08/05 05:34:49;;;;;;;;;12.00;11.00;;;;;-143.39;100.00;63593.47;4866776;29;46263;-82
2021/08/05 05:37:14;;;;;;;;;10.75;10.75;;;;;-143.39;100.00;63593.47;4850229;29;45910;-82
2021/08/05 05:39:40;;;;;;;;;15.75;13.75;;;;;-143.39;100.00;63593.47;4867628;29;45413;-82
2021/08/05 05:42:05;;;;;;;;;11.75;11.75;;;;;-143.39;100.00;63593.47;4850703;29;46251;-82
2021/08/05 05:44:30;;;;;;;;;13.25;10.00;;;;;-143.39;100.00;63593.47;4851976;29;47101;-82
2021/08/05 05:46:56;;;;;;;;;9.75;9.50;;;;;-143.39;100.00;63593.47;4851150;29;45285;-82
2021/08/05 05:49:21;;;;;;;;;13.00;11.50;;;;;-143.39;100.00;63593.47;4867087;29;45325;-82
2021/08/05 05:51:46;;;;;;;;;14.00;14.00;;;;;-143.39;100.00;63593.47;4866645;29;45452;-82
2021/08/05 05:54:12;;;;;;;;;12.25;11.00;;;;;-143.39;100.00;63593.47;4858692;29;47520;-82
2021/08/05 05:56:37;;;;;;;;;12.25;11.25;;;;;-143.39;100.00;63593.47;4879049;29;45436;-83
2021/08/05 05:59:03;;;;;;;;;14.50;10.00;;;;;-143.39;100.00;63593.47;4866885;29;45381;-83
2021/08/05 06:01:28;;;;;;;;;10.25;9.25;;;;;-143.39;100.00;63593.47;4849981;29;45435;-82
2021/08/05 06:03:53;;;;;;;;;13.25;10.25;;;;;-143.39;100.00;63593.47;4866737;29;46277;-82
2021/08/05 06:06:19;;;;;;;;;12.25;12.25;;;;;-143.39;100.00;63593.47;4850502;29;45374;-82
2021/08/05 06:08:44;;;;;;;;;11.50;11.00;;;;;-143.39;100.00;63593.47;4869390;29;45432;-83
2021/08/05 06:11:09;;;;;;;;;13.50;9.25;;;;;-143.39;100.00;63593.47;4867571;29;45480;-82
2021/08/05 06:13:35;;;;;;;;;12.00;11.50;;;;;-143.39;100.00;63593.47;4852242;29;47064;-83
2021/08/05 06:16:00;;;;;;;;;15.75;10.75;;;;;-143.39;100.00;63593.47;4849752;29;45979;-82
2021/08/05 06:18:25;;;;;;;;;9.50;9.50;;;;;-143.39;100.00;63593.47;4849858;29;45389;-83
2021/08/05 06:20:51;;;;;;;;;10.00;10.00;;;;;-143.39;100.00;63593.47;4865871;29;45175;-82
2021/08/05 06:23:16;;;;;;;;;12.00;12.00;;;;;-143.39;100.00;63593.47;4866169;29;48276;-82
2021/08/05 06:25:41;;;;;;;;;9.75;9.75;;;;;-143.39;100.00;63593.47;4849584;29;45261;-82
2021/08/05 06:28:07;;;;;;;;;12.00;10.25;;;;;-143.39;100.00;63593.47;4850875;29;45356;-82
2021/08/05 06:30:33;;;;;;;;;12.25;10.00;;;;;-143.39;100.00;63593.47;4850915;29;45368;-82
2021/08/05 06:32:58;;;;;;;;;12.00;10.50;;;;;-143.39;100.00;63593.47;4849697;29;47154;-82
2021/08/05 06:35:24;;;;;;;;;9.75;9.00;;;;;-143.39;100.00;63593.47;4866179;29;45339;-82
2021/08/05 06:37:50;;;;;;;;;14.00;10.00;;;;;-143.39;100.00;63593.47;4866175;29;45278;-81
2021/08/05 06:40:16;;;;;;;;;15.25;12.25;;;;;-143.39;100.00;63593.47;4849361;29;45546;-81
2021/08/05 06:42:42;;;;;;;;;14.00;10.25;;;;;-143.39;100.00;63593.47;4866128;29;46592;-82
2021/08/05 06:45:09;;;;;;;;;11.75;9.00;;;;;-143.39;100.00;63593.47;4866248;29;45357;-82
2021/08/05 06:47:38;;;;;;;;;10.75;9.00;;;;;-143.39;100.00;63593.47;4866194;29;45401;-82
2021/08/05 06:50:04;;;;;;;;;13.25;10.25;;;;;-143.39;100.00;63593.47;4866222;29;45295;-82
2021/08/05 06:52:29;;;;;;;;;12.50;11.25;;;;;-143.39;100.00;63593.47;4850388;29;48122;-81
2021/08/05 06:54:55;;;;;;;;;11.50;9.25;;;;;-143.39;100.00;63593.47;4850060;29;45302;-82
2021/08/05 06:57:20;;;;;;;;;15.25;10.00;;;;;-143.39;100.00;63593.47;4874485;29;45455;-82
2021/08/05 06:59:45;;;;;;;;;13.75;12.00;;;;;-143.39;100.00;63593.47;4865925;29;45439;-82
2021/08/05 07:02:11;;;;;;;;;16.75;12.50;;;;;-143.39;100.00;63593.47;4849318;29;48149;-82
2021/08/05 07:04:36;;;;;;;;;16.00;10.25;;;;;-143.39;100.00;63593.47;4865787;29;45444;-83
2021/08/05 07:07:02;;;;;;;;;14.00;10.75;;;;;-143.39;100.00;63593.47;4865857;29;45248;-84
2021/08/05 07:09:27;;;;;;;;;17.00;10.75;;;;;-143.39;100.00;63593.47;4867030;29;45469;-83
2021/08/05 07:11:52;;;;;;;;;14.25;11.00;;;;;-143.39;100.00;63593.47;4865977;29;45433;-83
2021/08/05 07:14:18;;;;;;;;;16.50;12.75;;;;;-143.39;100.00;63593.47;4869929;29;45368;-82
2021/08/05 07:16:43;;;;;;;;;11.25;10.75;;;;;-143.39;100.00;63593.47;4850470;29;45454;-81
2021/08/05 07:19:08;;;;;;;;;14.25;11.50;;;;;-143.39;100.00;63593.47;4849640;29;45393;-82
2021/08/05 07:21:34;;;;;;;;;14.00;12.50;;;;;-143.39;100.00;63593.47;4865578;29;45602;-82
2021/08/05 07:23:59;;;;;;;;;12.50;9.50;;;;;-143.39;100.00;63593.47;4865709;29;45440;-82
2021/08/05 07:26:24;;;;;;;;;18.00;11.25;;;;;-143.39;100.00;63593.47;4849241;29;45963;-82
2021/08/05 07:28:50;;;;;;;;;12.75;10.75;;;;;-143.39;100.00;63593.47;4865442;29;45519;-82
2021/08/05 07:31:15;;;;;;;;;11.75;9.00;;;;;-143.39;100.00;63593.47;4848946;29;47174;-82
2021/08/05 07:33:41;;;;;;;;;10.25;9.25;;;;;-143.39;100.00;63593.47;4867628;29;45331;-82
2021/08/05 07:36:06;;;;;;;;;10.25;8.50;;;;;-143.39;100.00;63593.47;4853246;29;45285;-82
2021/08/05 07:38:32;;;;;;;;;10.75;10.00;;;;;-143.39;100.00;63593.47;4853496;29;45479;-82
2021/08/05 07:40:57;;;;;;;;;15.25;12.00;;;;;-143.39;100.00;63593.47;4868866;29;45706;-82
2021/08/05 07:43:22;;;;;;;;;15.25;12.25;;;;;-143.39;100.00;63593.47;4868784;29;45271;-82
2021/08/05 07:45:48;;;;;;;;;13.00;10.25;;;;;-143.39;100.00;63593.47;4869167;29;45286;-82
2021/08/05 07:48:13;;;;;;;;;12.00;10.00;;;;;-143.39;100.00;63593.47;4852549;29;45410;-82
2021/08/05 07:50:38;;;;;;;;;13.00;11.00;;;;;-143.39;100.00;63593.47;4880453;29;45154;-82
2021/08/05 07:53:04;;;;;;;;;13.50;11.00;;;;;-143.39;100.00;63593.47;4868824;29;45226;-81
2021/08/05 07:55:31;;;;;;;;;10.75;10.00;;;;;-143.39;100.00;63593.47;4854109;29;45440;-81
2021/08/05 07:57:56;;;;;;;;;14.00;11.50;;;;;-143.39;100.00;63593.47;4858643;29;45547;-81
2021/08/05 08:00:21;;;;;;;;;13.00;10.00;;;;;-143.39;100.00;63593.47;4869928;29;45980;-84
2021/08/05 08:02:47;;;;;;;;;12.00;9.50;;;;;-143.39;100.00;63593.47;4868434;29;45472;-83
2021/08/05 08:05:14;;;;;;;;;12.50;11.50;;;;;-143.39;100.00;63593.47;4868644;29;45428;-83
2021/08/05 08:07:42;;;;;;;;;17.75;14.00;;;;;-143.39;100.00;63593.47;4869050;29;45478;-82
2021/08/05 08:10:09;;;;;;;;;14.25;10.00;;;;;-143.39;100.00;63593.47;4863078;29;46974;-83
2021/08/05 08:12:35;;;;;;;;;13.50;12.50;;;;;-143.39;100.00;63593.47;4871036;29;45197;-82
2021/08/05 08:15:00;;;;;;;;;13.00;11.50;;;;;-143.39;100.00;63593.47;4868843;29;45319;-83
2021/08/05 08:17:26;;;;;;;;;15.75;12.00;;;;;-143.39;100.00;63593.47;4851861;29;45533;-81
2021/08/05 08:19:51;;;;;;;;;11.25;10.75;;;;;-143.39;100.00;63593.47;4869548;29;46413;-82
2021/08/05 08:22:17;;;;;;;;;14.25;12.50;;;;;-143.39;100.00;63593.47;4868642;29;45260;-82
2021/08/05 08:24:42;;;;;;;;;12.50;10.25;;;;;-143.39;100.00;63593.47;4851775;29;45755;-81
2021/08/05 08:27:07;;;;;;;;;15.25;11.50;;;;;-143.39;100.00;63593.47;4851435;29;45351;-81
2021/08/05 08:29:33;;;;;;;;;15.00;12.75;;;;;-143.39;100.00;63593.47;4868228;29;46284;-82
2021/08/05 08:31:58;;;;;;;;;12.25;11.50;;;;;-143.39;100.00;63593.47;4868155;29;45453;-82
2021/08/05 08:34:24;;;;;;;;;12.00;11.25;;;;;-143.39;100.00;63593.47;4851490;29;45468;-82
2021/08/05 08:36:49;;;;;;;;;15.75;12.75;;;;;-143.39;100.00;63593.47;4851067;29;45417;-82
2021/08/05 08:39:14;;;;;;;;;14.25;11.50;;;;;-143.39;100.00;63593.47;4851191;29;46156;-82
2021/08/05 08:41:41;;;;;;;;;14.00;11.00;;;;;-143.39;100.00;63593.47;4868632;29;45427;-82
2021/08/05 08:44:08;;;;;;;;;14.25;11.25;;;;;-143.39;100.00;63593.47;4868401;29;45279;-82
2021/08/05 08:46:35;;;;;;;;;16.00;13.00;;;;;-143.39;100.00;63593.47;4868952;29;45249;-82
2021/08/05 08:49:01;;;;;;;;;13.25;9.75;;;;;-143.39;100.00;63593.47;4868084;29;47109;-82
2021/08/05 08:51:32;;;;;;;;;10.75;10.75;;;;;-143.39;100.00;63593.47;4850508;29;45494;-82
2021/08/05 08:54:02;;;;;;;;;12.75;10.75;;;;;-143.39;100.00;63593.47;4868178;29;45294;-82
2021/08/05 08:56:30;;;;;;;;;17.25;12.75;;;;;-143.39;100.00;63593.47;4859027;29;46024;-82
2021/08/05 08:58:58;;;;;;;;;14.00;11.75;;;;;-143.39;100.00;63593.47;4867938;29;46136;-82
2021/08/05 09:01:24;;;;;;;;;12.00;10.25;;;;;-143.39;100.00;63593.47;4868002;29;45272;-83
2021/08/05 09:03:49;;;;;;;;;15.75;13.50;;;;;-143.39;100.00;63593.47;4851605;29;45217;-82
2021/08/05 09:06:15;;;;;;;;;15.25;12.25;;;;;-143.39;100.00;63593.47;4871036;29;45239;-82
2021/08/05 09:08:41;;;;;;;;;10.00;10.00;;;;;-143.39;100.00;63593.47;4870761;29;46436;-83
2021/08/05 09:11:07;;;;;;;;;13.00;12.25;;;;;-143.39;100.00;63593.47;4870536;29;45358;-82
2021/08/05 09:13:33;;;;;;;;;14.00;12.25;;;;;-143.39;100.00;63593.47;4874648;29;45317;-82
2021/08/05 09:15:58;;;;;;;;;14.25;10.50;;;;;-143.39;100.00;63593.47;4871868;29;45306;-82
2021/08/05 09:18:28;;;;;;;;;12.75;11.75;;;;;-143.39;100.00;63593.47;4879450;29;45412;-82
2021/08/05 09:21:13;;;;;;;;;13.00;10.25;;;;;-143.39;100.00;63593.47;4856938;29;45839;-83
2021/08/05 09:24:01;;;;;;;;;14.50;12.50;;;;;-143.39;100.00;63593.47;4852030;29;45179;-82
2021/08/05 09:26:34;;;;;;;;;9.50;7.00;;;;;-143.39;100.00;63593.47;4869587;29;45380;-82
2021/08/05 09:29:09;;;;;;;;;12.00;10.25;;;;;-143.39;100.00;63593.47;4852156;29;47702;-82
2021/08/05 09:31:37;;;;;;;;;11.00;10.00;;;;;-143.39;100.00;63593.47;4867935;29;45469;-83
2021/08/05 09:34:05;;;;;;;;;12.75;11.75;;;;;-143.39;100.00;63593.47;4867846;29;45363;-83
2021/08/05 09:36:31;;;;;;;;;13.50;9.75;;;;;-143.39;100.00;63593.47;4867699;29;45316;-82
2021/08/05 09:38:56;;;;;;;;;17.25;12.75;;;;;-143.39;100.00;63593.47;4870269;29;45300;-83
2021/08/05 09:41:21;;;;;;;;;14.25;11.00;;;;;-143.39;100.00;63593.47;4875455;29;45317;-83
2021/08/05 09:43:47;;;;;;;;;13.00;11.00;;;;;-143.39;100.00;63593.47;4867397;29;45332;-82
2021/08/05 09:46:13;;;;;;;;;15.00;12.25;;;;;-143.39;100.00;63593.47;4850387;29;45264;-83
2021/08/05 09:48:44;;;;;;;;;10.50;9.50;;;;;-143.39;100.00;63593.47;4867067;29;45376;-83
2021/08/05 09:51:18;;;;;;;;;9.25;9.25;;;;;-143.39;100.00;63593.47;4869151;29;45288;-83
2021/08/05 09:54:03;;;;;;;;;10.00;8.75;;;;;-143.39;100.00;63593.47;4850874;29;45493;-83
2021/08/05 09:56:32;;;;;;;;;8.75;7.00;;;;;-143.39;100.00;63593.47;4858890;29;45519;-82
2021/08/05 09:59:12;;;;;;;;;6.00;6.00;;;;;-143.39;100.00;63593.47;4867066;29;45238;-83
2021/08/05 10:02:05;;;;;;;;;8.25;6.00;;;;;-143.39;100.00;63593.47;4867025;29;45435;-83
2021/08/05 10:04:36;;;;;;;;;6.00;6.00;;;;;-143.39;100.00;63593.47;4850197;29;45438;-83
2021/08/05 10:07:06;;;;;;;;;8.00;6.50;;;;;-143.39;100.00;63593.47;4850164;29;45506;-83
2021/08/05 10:09:38;;;;;;;;;7.25;6.50;;;;;-143.39;100.00;63593.47;4853069;29;47358;-84
2021/08/05 10:12:25;;;;;;;;;6.25;6.25;;;;;-143.39;100.00;63593.47;4853938;29;45412;-83
2021/08/05 10:15:05;;;;;;;;;8.00;5.50;;;;;-143.39;100.00;63593.47;4869928;29;45456;-84
2021/08/05 10:17:31;;;;;;;;;5.25;4.25;;;;;-143.39;100.00;63593.47;4870747;29;45432;-83
2021/08/05 10:19:58;;;;;;;;;4.75;4.75;;;;;-143.39;100.00;63593.47;4870903;29;45271;-83
2021/08/05 10:22:24;;;;;;;;;6.25;6.25;;;;;-143.39;100.00;63593.47;4870691;29;45231;-83
2021/08/05 10:24:51;;;;;;;;;5.00;5.00;;;;;-143.39;100.00;63593.47;4870705;29;45277;-83
2021/08/05 10:27:20;;;;;;;;;7.50;6.50;;;;;-143.39;100.00;63593.47;4867332;29;45443;-83
2021/08/05 10:29:48;;;;;;;;;8.25;4.75;;;;;-143.39;100.00;63593.47;4867818;29;46266;-83
2021/08/05 10:32:15;;;;;;;;;4.75;4.00;;;;;-143.39;100.00;63593.47;4850449;29;45198;-84
2021/08/05 10:34:40;;;;;;;;;4.00;4.00;;;;;-143.39;100.00;63593.47;4850804;29;45266;-84
2021/08/05 10:37:09;;;;;;;;;4.50;3.50;;;;;-143.39;100.00;63593.47;4868416;29;45563;-83
2021/08/05 10:39:35;;;;;;;;;5.50;4.25;;;;;-143.39;100.00;63593.47;4850088;29;47071;-84
2021/08/05 10:42:04;;;;;;;;;6.00;3.00;;;;;-143.39;100.00;63593.47;4866764;29;45401;-84
2021/08/05 10:44:30;;;;;;;;;3.75;3.75;;;;;-143.39;100.00;63593.47;4849911;29;45269;-84
2021/08/05 10:46:59;;;;;;;;;2.50;2.50;;;;;-143.39;100.00;63593.47;4865095;29;45317;-83
2021/08/05 10:49:26;;;;;;;;;3.25;2.50;;;;;-143.39;100.00;63593.47;4865890;29;45422;-84
2021/08/05 10:51:51;;;;;;;;;4.00;3.00;;;;;-143.39;100.00;63593.47;4865967;29;45359;-83
2021/08/05 10:54:46;;;;;;;;;2.00;2.00;;;;;-143.39;100.00;63593.47;4866460;29;45290;-83
2021/08/05 10:57:20;;;;;;;;;3.50;3.50;;;;;-143.39;100.00;63593.47;4856797;29;45800;-83
2021/08/05 11:00:08;;;;;;;;;5.00;4.00;;;;;-143.39;100.00;63593.47;4867554;29;46361;-83
2021/08/05 11:02:51;;;;;;;;;5.00;4.00;;;;;-143.39;100.00;63593.47;4866025;29;45159;-83